Time;durP1;ratioP1;P1;durP2;ratioP2;P2;SDS_P1;SDS_P2;PMS_P1;PMS_P2;Temp;Humidity;BMP_temperature;BMP_pressure;BME280_temperature;BME280_humidity;BME280_pressure;Samples;Min_cycle;Max_cycle;Signal;HPM_P1;HPM_P2
2021/03/09 00:01:31;;;;;;;15.00;8.20;;;-3274.50;77.00;;;;;;5017272;28;20060;-67
2021/03/09 00:03:57;;;;;;;15.70;9.25;;;-3274.50;77.10;;;;;;5023366;28;20062;-67
2021/03/09 00:06:25;;;;;;;16.30;8.60;;;-3274.50;77.20;;;;;;5046329;28;20128;-67
2021/03/09 00:08:50;;;;;;;15.98;8.43;;;-3274.40;77.50;;;;;;5053614;28;20030;-67
2021/03/09 00:11:16;;;;;;;16.48;8.43;;;-3274.40;77.60;;;;;;5024789;28;20514;-67
2021/03/09 00:13:41;;;;;;;15.05;8.50;;;-3274.50;77.30;;;;;;5020579;28;20486;-67
2021/03/09 00:16:07;;;;;;;13.30;7.78;;;-3274.50;77.10;;;;;;5013268;28;20398;-65
2021/03/09 00:18:33;;;;;;;16.13;7.88;;;-3274.40;77.00;;;;;;5035507;28;20021;-67
2021/03/09 00:20:58;;;;;;;12.25;8.02;;;-3274.40;76.80;;;;;;5026211;28;20030;-66
2021/03/09 00:23:24;;;;;;;14.55;7.95;;;-3274.40;76.80;;;;;;5026244;28;20021;-66
2021/03/09 00:25:51;;;;;;;14.63;8.80;;;-3274.30;77.30;;;;;;5022896;28;20026;-67
2021/03/09 00:28:20;;;;;;;18.15;9.60;;;-3274.30;77.30;;;;;;5051819;28;20121;-67
2021/03/09 00:30:46;;;;;;;14.38;8.80;;;-3274.30;77.70;;;;;;5040840;28;20036;-67
2021/03/09 00:33:14;;;;;;;17.67;8.43;;;-3274.30;77.60;;;;;;5027998;28;20096;-67
2021/03/09 00:35:40;;;;;;;14.23;7.88;;;-3274.40;77.40;;;;;;5048093;28;20394;-67
2021/03/09 00:38:08;;;;;;;17.30;8.00;;;-3274.40;76.90;;;;;;5038293;28;20033;-68
2021/03/09 00:40:33;;;;;;;14.57;8.30;;;-3274.40;76.90;;;;;;5033319;28;20064;-68
2021/03/09 00:42:59;;;;;;;14.95;7.82;;;-3274.30;77.00;;;;;;5025023;28;20116;-67
2021/03/09 00:45:24;;;;;;;14.68;7.43;;;-3274.30;77.10;;;;;;5026158;28;20032;-68
2021/03/09 00:47:50;;;;;;;15.85;8.38;;;-3274.30;77.20;;;;;;5049285;28;20029;-67
2021/03/09 00:50:15;;;;;;;14.30;8.32;;;-3274.30;77.10;;;;;;5004006;28;20468;-67
2021/03/09 00:52:41;;;;;;;18.35;7.72;;;-3274.30;77.10;;;;;;5031850;28;20026;-67
2021/03/09 00:55:07;;;;;;;16.33;7.57;;;-3274.30;77.20;;;;;;5043018;28;20104;-67
2021/03/09 00:57:32;;;;;;;15.90;7.75;;;-3274.30;77.40;;;;;;5041806;28;20039;-67
2021/03/09 00:59:58;;;;;;;15.82;7.65;;;-3274.30;77.30;;;;;;5035960;28;20394;-67
2021/03/09 01:02:24;;;;;;;15.02;7.50;;;-3274.30;77.40;;;;;;5050962;28;20104;-67
2021/03/09 01:04:51;;;;;;;14.27;8.13;;;-3274.30;77.30;;;;;;5040059;28;20067;-67
2021/03/09 01:07:17;;;;;;;13.68;7.40;;;-3274.30;77.30;;;;;;5078838;22;20052;-67
2021/03/09 01:09:42;;;;;;;13.05;8.20;;;-3274.40;77.10;;;;;;5062552;28;20024;-67
2021/03/09 01:12:08;;;;;;;12.30;7.85;;;-3274.40;77.10;;;;;;5073081;28;20028;-67
2021/03/09 01:14:36;;;;;;;13.85;7.82;;;-3274.40;77.10;;;;;;5090499;28;20478;-67
2021/03/09 01:17:02;;;;;;;16.13;8.65;;;-3274.40;77.00;;;;;;5053123;28;20055;-67
2021/03/09 01:19:28;;;;;;;13.85;7.90;;;-3274.40;77.10;;;;;;5062635;28;20390;-67
2021/03/09 01:21:53;;;;;;;13.30;8.05;;;-3274.30;77.30;;;;;;5068603;28;20024;-67
2021/03/09 01:24:19;;;;;;;15.38;8.88;;;-3274.40;77.60;;;;;;5039448;28;20028;-67
2021/03/09 01:26:45;;;;;;;17.65;8.65;;;-3274.30;77.70;;;;;;5068478;28;20037;-68
2021/03/09 01:29:10;;;;;;;13.35;8.02;;;-3274.20;78.10;;;;;;5063124;28;20104;-68
2021/03/09 01:31:36;;;;;;;15.25;8.07;;;-3274.40;77.90;;;;;;5061352;28;20095;-67
2021/03/09 01:34:01;;;;;;;14.23;8.10;;;-3274.30;77.70;;;;;;5051460;28;20021;-67
2021/03/09 01:36:27;;;;;;;17.95;7.80;;;-3274.20;77.50;;;;;;5056717;28;20107;-67
2021/03/09 01:38:53;;;;;;;15.82;9.25;;;-3274.20;77.70;;;;;;5067159;28;20024;-67
2021/03/09 01:41:19;;;;;;;12.32;7.50;;;-3274.30;77.90;;;;;;5063748;28;20433;-67
2021/03/09 01:43:44;;;;;;;10.65;6.93;;;-3274.20;77.60;;;;;;5060083;28;20027;-68
2021/03/09 01:46:10;;;;;;;15.07;8.15;;;-3274.30;77.50;;;;;;5051974;28;20024;-67
2021/03/09 01:48:40;;;;;;;11.57;7.68;;;-3274.30;77.50;;;;;;5057829;28;20036;-67
2021/03/09 01:51:06;;;;;;;16.25;7.60;;;-3274.20;77.40;;;;;;5064958;28;20078;-67
2021/03/09 01:53:32;;;;;;;12.77;7.28;;;-3274.20;77.40;;;;;;5065594;28;20279;-67
2021/03/09 01:55:58;;;;;;;12.98;7.43;;;-3274.20;77.60;;;;;;5039432;28;20055;-67
2021/03/09 01:58:26;;;;;;;15.55;6.88;;;-3274.20;77.60;;;;;;5070661;28;20024;-67
2021/03/09 02:00:54;;;;;;;14.57;7.30;;;-3274.20;77.80;;;;;;5073425;28;20016;-67
2021/03/09 02:03:20;;;;;;;12.52;6.63;;;-3274.20;77.60;;;;;;5045162;28;20021;-67
2021/03/09 02:05:45;;;;;;;13.98;7.18;;;-3274.20;77.50;;;;;;5067115;28;20032;-68
2021/03/09 02:08:11;;;;;;;11.35;6.20;;;-3274.20;77.20;;;;;;5037643;28;20029;-67
2021/03/09 02:10:37;;;;;;;12.23;6.72;;;-3274.20;77.00;;;;;;5057448;28;20028;-67
2021/03/09 02:13:31;;;;;;;12.30;6.45;;;-3274.10;76.90;;;;;;5047651;28;20036;-67
2021/03/09 02:16:11;;;;;;;12.05;6.18;;;-3274.10;76.90;;;;;;5050545;28;20028;-67
2021/03/09 02:18:42;;;;;;;11.63;6.25;;;-3274.10;76.70;;;;;;5057498;28;20023;-68
2021/03/09 02:21:31;;;;;;;9.27;5.57;;;-3274.20;76.60;;;;;;5064108;28;20027;-67
2021/03/09 02:24:11;;;;;;;10.23;5.43;;;-3274.10;76.60;;;;;;5068204;28;20074;-68
2021/03/09 02:27:05;;;;;;;10.27;6.30;;;-3274.10;76.30;;;;;;5056972;28;20031;-67
2021/03/09 02:30:05;;;;;;;10.38;5.47;;;-3274.00;76.80;;;;;;5061029;28;20024;-68
2021/03/09 02:32:32;;;;;;;10.80;5.63;;;-3274.10;76.80;;;;;;5056171;28;20013;-67
2021/03/09 02:35:00;;;;;;;8.48;5.30;;;-3274.10;77.10;;;;;;5065266;28;20044;-68
2021/03/09 02:37:37;;;;;;;9.65;6.38;;;-3274.10;77.30;;;;;;5063128;28;20033;-67
2021/03/09 02:40:06;;;;;;;10.63;5.57;;;-3274.10;77.30;;;;;;5038554;28;20444;-67
2021/03/09 02:42:34;;;;;;;8.88;5.63;;;-3274.10;77.20;;;;;;5056127;28;20032;-67
2021/03/09 02:45:01;;;;;;;12.15;6.80;;;-3274.00;77.30;;;;;;5046711;28;20035;-68
2021/03/09 02:47:29;;;;;;;9.13;5.40;;;-3273.90;77.90;;;;;;5045779;28;20111;-68
2021/03/09 02:49:57;;;;;;;10.07;5.75;;;-3273.90;78.00;;;;;;5039674;28;20342;-68
2021/03/09 02:52:25;;;;;;;9.82;5.88;;;-3273.90;77.90;;;;;;5068696;28;20506;-68
2021/03/09 02:54:52;;;;;;;11.00;5.85;;;-3274.00;77.90;;;;;;5059458;28;20025;-68
2021/03/09 02:57:21;;;;;;;11.85;5.78;;;-3273.90;77.90;;;;;;5044301;28;20029;-68
2021/03/09 02:59:48;;;;;;;11.15;6.40;;;-3273.90;78.30;;;;;;5044912;28;20070;-68
2021/03/09 03:02:16;;;;;;;13.63;7.32;;;-3273.90;78.50;;;;;;5068861;28;20107;-68
2021/03/09 03:04:44;;;;;;;12.88;7.03;;;-3273.80;78.60;;;;;;5057342;28;20475;-69
2021/03/09 03:07:11;;;;;;;11.38;6.47;;;-3273.80;78.70;;;;;;5039768;28;20391;-67
2021/03/09 03:09:37;;;;;;;12.20;6.30;;;-3273.70;79.30;;;;;;5047053;28;20035;-68
2021/03/09 03:12:04;;;;;;;14.50;6.40;;;-3273.70;79.50;;;;;;5055648;28;20164;-68
2021/03/09 03:14:31;;;;;;;11.68;6.03;;;-3273.80;79.30;;;;;;5068241;28;20021;-68
2021/03/09 03:17:01;;;;;;;10.52;5.60;;;-3273.80;78.70;;;;;;5058555;28;20441;-68
2021/03/09 03:19:27;;;;;;;10.18;6.00;;;-3273.90;78.40;;;;;;5060431;28;20036;-68
2021/03/09 03:21:54;;;;;;;10.35;5.78;;;-3273.90;78.40;;;;;;5065721;28;20028;-68
2021/03/09 03:24:20;;;;;;;9.93;5.60;;;-3273.90;78.50;;;;;;5051975;28;20036;-68
2021/03/09 03:26:47;;;;;;;12.10;6.25;;;-3274.00;78.00;;;;;;5039072;28;20030;-68
2021/03/09 03:29:14;;;;;;;14.10;6.20;;;-3274.00;78.10;;;;;;5062242;28;20525;-68
2021/03/09 03:31:40;;;;;;;12.32;5.85;;;-3274.10;78.10;;;;;;5047256;28;20020;-68
2021/03/09 03:34:06;;;;;;;13.63;6.38;;;-3274.00;78.00;;;;;;5054953;28;20036;-67
2021/03/09 03:36:36;;;;;;;14.05;7.30;;;-3273.90;77.90;;;;;;5067468;28;20029;-67
2021/03/09 03:39:02;;;;;;;10.23;5.90;;;-3273.90;77.80;;;;;;5059718;28;20514;-67
2021/03/09 03:41:28;;;;;;;10.65;5.05;;;-3274.00;76.90;;;;;;5060404;28;20052;-67
2021/03/09 03:43:53;;;;;;;11.00;5.32;;;-3274.10;76.50;;;;;;5066627;28;20056;-67
2021/03/09 03:46:19;;;;;;;9.45;5.43;;;-3274.10;76.50;;;;;;5036834;28;20025;-67
2021/03/09 03:48:46;;;;;;;13.05;4.65;;;-3274.20;76.80;;;;;;5066022;28;20151;-67
2021/03/09 03:51:15;;;;;;;7.35;4.43;;;-3274.10;76.60;;;;;;5043065;28;20025;-67
2021/03/09 03:54:24;;;;;;;7.88;4.50;;;-3274.20;75.40;;;;;;5058223;28;20032;-66
2021/03/09 03:56:52;;;;;;;7.30;4.13;;;-3274.10;75.70;;;;;;5056737;28;20028;-67
2021/03/09 03:59:35;;;;;;;8.15;4.88;;;-3274.10;75.80;;;;;;5070024;28;20122;-67
2021/03/09 04:02:06;;;;;;;9.35;4.20;;;-3274.10;76.10;;;;;;5071383;28;20027;-68
2021/03/09 04:04:34;;;;;;;9.77;4.72;;;-3274.10;76.30;;;;;;5022175;28;20036;-68
2021/03/09 04:07:01;;;;;;;9.55;4.80;;;-3274.10;76.40;;;;;;5051517;28;20032;-67
2021/03/09 04:09:31;;;;;;;8.68;4.28;;;-3274.10;76.60;;;;;;5041858;28;20134;-67
2021/03/09 04:11:57;;;;;;;8.45;4.53;;;-3274.20;76.40;;;;;;5066844;28;20029;-67
2021/03/09 04:14:23;;;;;;;8.52;4.53;;;-3274.30;76.30;;;;;;5036956;28;20036;-68
2021/03/09 04:16:52;;;;;;;103.57;52.50;;;-3274.20;76.30;;;;;;5064681;28;20028;-67
2021/03/09 04:19:18;;;;;;;386.20;206.90;;;-3274.20;76.60;;;;;;5043168;28;20025;-67
2021/03/09 04:21:45;;;;;;;13.80;8.13;;;-3274.20;77.30;;;;;;5057661;28;20021;-67
2021/03/09 04:24:14;;;;;;;8.45;5.03;;;-3274.30;76.80;;;;;;5066926;28;20098;-67
2021/03/09 04:26:43;;;;;;;9.90;4.85;;;-3274.30;76.70;;;;;;5036252;28;20038;-67
2021/03/09 04:29:11;;;;;;;8.15;4.97;;;-3274.30;76.70;;;;;;5042526;28;20039;-67
2021/03/09 04:31:38;;;;;;;609.15;334.75;;;-3274.30;76.80;;;;;;5061884;28;20032;-67
2021/03/09 04:34:05;;;;;;;401.85;181.07;;;-3274.30;78.10;;;;;;5053122;28;20436;-67
2021/03/09 04:36:31;;;;;;;105.47;64.75;;;-3274.40;78.80;;;;;;5053131;28;20028;-67
2021/03/09 04:38:57;;;;;;;8.82;6.28;;;-3274.40;78.40;;;;;;5062848;28;20036;-67
2021/03/09 04:41:23;;;;;;;10.15;5.18;;;-3274.30;77.80;;;;;;5043550;28;20032;-67
2021/03/09 04:43:48;;;;;;;10.63;4.93;;;-3274.30;77.00;;;;;;5022719;28;20028;-67
2021/03/09 04:46:15;;;;;;;7.13;4.60;;;-3274.30;76.20;;;;;;5049404;28;20025;-68
2021/03/09 04:48:42;;;;;;;9.00;4.57;;;-3274.20;76.60;;;;;;5055784;28;20078;-67
2021/03/09 04:51:14;;;;;;;9.48;4.65;;;-3274.20;76.00;;;;;;5044210;28;20446;-68
2021/03/09 04:53:41;;;;;;;9.60;5.07;;;-3274.20;75.80;;;;;;5062511;28;20024;-68
2021/03/09 04:56:07;;;;;;;11.43;4.93;;;-3274.30;75.90;;;;;;5035854;28;20060;-67
2021/03/09 04:58:32;;;;;;;9.50;4.93;;;-3274.30;76.00;;;;;;5052873;28;20429;-68
2021/03/09 05:00:58;;;;;;;9.07;4.50;;;-3274.30;76.00;;;;;;5052546;28;20036;-68
2021/03/09 05:03:24;;;;;;;9.73;4.50;;;-3274.30;75.70;;;;;;5041678;28;20376;-68
2021/03/09 05:05:50;;;;;;;11.27;5.25;;;-3274.20;75.30;;;;;;5064836;28;20031;-68
2021/03/09 05:08:15;;;;;;;13.13;6.10;;;-3274.30;75.50;;;;;;5034550;28;20453;-68
2021/03/09 05:10:41;;;;;;;9.27;5.05;;;-3274.30;75.90;;;;;;5041420;28;20028;-68
2021/03/09 05:13:07;;;;;;;8.98;4.53;;;-3274.40;75.50;;;;;;5065680;28;20025;-68
2021/03/09 05:15:32;;;;;;;7.25;4.60;;;-3274.40;75.30;;;;;;5048180;28;20036;-68
2021/03/09 05:18:01;;;;;;;9.07;4.53;;;-3274.40;75.10;;;;;;5058343;28;20029;-67
2021/03/09 05:20:27;;;;;;;6.80;4.35;;;-3274.40;74.90;;;;;;5074456;28;20070;-67
2021/03/09 05:22:52;;;;;;;9.90;5.45;;;-3274.50;74.60;;;;;;5073954;28;20028;-68
2021/03/09 05:25:18;;;;;;;7.18;4.20;;;-3274.50;74.90;;;;;;5046088;28;20415;-68
2021/03/09 05:27:45;;;;;;;6.95;4.28;;;-3274.60;74.60;;;;;;5066920;28;20043;-68
2021/03/09 05:30:14;;;;;;;8.63;4.20;;;-3274.60;74.00;;;;;;5057141;28;20162;-68
2021/03/09 05:32:42;;;;;;;9.45;4.70;;;-3274.60;73.90;;;;;;5050641;28;20044;-68
2021/03/09 05:35:11;;;;;;;8.80;4.43;;;-3274.60;74.10;;;;;;5062182;28;20536;-67
2021/03/09 05:37:42;;;;;;;8.35;4.50;;;-3274.60;74.20;;;;;;5042660;28;20029;-67
2021/03/09 05:40:08;;;;;;;9.27;4.88;;;-3274.60;73.90;;;;;;5052039;28;20032;-67
2021/03/09 05:42:34;;;;;;;9.50;5.00;;;-3274.70;74.20;;;;;;5057526;28;20510;-67
2021/03/09 05:45:02;;;;;;;6.93;4.35;;;-3274.70;74.00;;;;;;5071908;28;20031;-67
2021/03/09 05:47:28;;;;;;;8.98;4.95;;;-3274.80;73.70;;;;;;5061456;28;20060;-67
2021/03/09 05:49:53;;;;;;;9.70;4.75;;;-3274.80;73.10;;;;;;5068244;28;20032;-67
2021/03/09 05:52:19;;;;;;;8.65;4.45;;;-3274.90;72.90;;;;;;5038873;28;20041;-68
2021/03/09 05:54:46;;;;;;;5.90;3.78;;;-3274.90;72.90;;;;;;5068578;28;20037;-67
2021/03/09 05:57:12;;;;;;;8.25;4.40;;;-3274.90;72.40;;;;;;5070922;28;20060;-67
2021/03/09 05:59:37;;;;;;;8.07;4.40;;;-3274.80;72.40;;;;;;5071113;28;20056;-67
2021/03/09 06:02:06;;;;;;;10.35;5.25;;;-3274.80;72.70;;;;;;5072236;28;20032;-67
2021/03/09 06:04:35;;;;;;;10.32;4.90;;;-3274.80;72.50;;;;;;5049991;28;20366;-67
2021/03/09 06:07:01;;;;;;;9.20;5.00;;;-3274.80;72.60;;;;;;5070372;28;20522;-67
2021/03/09 06:09:33;;;;;;;7.43;4.10;;;-3274.80;72.60;;;;;;5071041;28;20402;-68
2021/03/09 06:12:14;;;;;;;11.65;5.05;;;-3274.90;72.50;;;;;;5070704;28;20033;-67
2021/03/09 06:14:40;;;;;;;7.63;4.38;;;-3275.00;72.40;;;;;;5054340;28;20035;-68
2021/03/09 06:17:07;;;;;;;9.60;5.55;;;-3275.00;72.20;;;;;;5070667;28;20025;-68
2021/03/09 06:19:48;;;;;;;10.60;5.20;;;-3275.10;72.00;;;;;;5036884;28;20394;-67
2021/03/09 06:22:15;;;;;;;11.52;5.63;;;-3275.20;71.60;;;;;;5071678;28;20029;-68
2021/03/09 06:24:42;;;;;;;13.18;5.32;;;-3275.20;71.50;;;;;;5070537;28;20107;-68
2021/03/09 06:27:29;;;;;;;10.07;5.57;;;-3275.30;71.10;;;;;;5072405;28;20021;-68
2021/03/09 06:29:58;;;;;;;8.68;4.30;;;-3275.40;71.20;;;;;;5053093;28;20032;-67
2021/03/09 06:32:25;;;;;;;10.18;5.25;;;-3275.50;70.60;;;;;;5056102;28;20033;-68
2021/03/09 06:34:54;;;;;;;9.50;5.68;;;-3275.60;70.10;;;;;;5066353;28;20029;-68
2021/03/09 06:37:23;;;;;;;13.07;5.30;;;-3275.60;69.90;;;;;;5044481;28;20029;-67
2021/03/09 06:39:56;;;;;;;10.02;5.93;;;-3275.80;70.10;;;;;;5058760;28;20081;-67
2021/03/09 06:42:23;;;;;;;9.13;5.32;;;-3275.90;69.60;;;;;;5071598;28;20017;-67
2021/03/09 06:44:52;;;;;;;7.75;4.22;;;-3276.00;68.30;;;;;;5048439;28;20104;-66
2021/03/09 06:47:30;;;;;;;15.05;4.78;;;-3276.00;68.40;;;;;;5051675;28;20036;-67
2021/03/09 06:49:55;;;;;;;7.43;4.70;;;-3276.10;68.10;;;;;;5067616;28;20027;-67
2021/03/09 06:52:23;;;;;;;8.57;5.10;;;-3276.20;68.00;;;;;;5037486;28;20021;-66
2021/03/09 06:54:51;;;;;;;10.07;5.03;;;-3276.10;67.70;;;;;;5072587;28;20032;-69
2021/03/09 06:57:17;;;;;;;8.85;4.88;;;-3276.30;67.90;;;;;;5061792;28;20051;-67
2021/03/09 06:59:53;;;;;;;9.23;5.00;;;-3276.20;67.90;;;;;;5065267;28;20351;-67
2021/03/09 07:02:27;;;;;;;13.57;5.28;;;-3276.20;68.00;;;;;;5052064;28;20048;-68
2021/03/09 07:05:00;;;;;;;9.60;5.13;;;-3276.30;67.90;;;;;;5040145;28;20027;-68
2021/03/09 07:07:30;;;;;;;9.60;4.18;;;-3276.40;67.30;;;;;;5057171;23;20512;-67
2021/03/09 07:10:07;;;;;;;9.02;5.03;;;-3276.60;67.30;;;;;;5071452;28;20056;-66
2021/03/09 07:12:34;;;;;;;8.88;4.78;;;0.00;66.60;;;;;;5051901;28;20104;-66
2021/03/09 07:15:01;;;;;;;10.63;5.45;;;0.20;66.00;;;;;;5065839;28;20456;-66
2021/03/09 07:17:31;;;;;;;11.77;5.50;;;0.20;66.20;;;;;;5074177;28;20544;-68
2021/03/09 07:19:58;;;;;;;9.93;6.07;;;0.10;66.10;;;;;;5067015;28;20016;-67
2021/03/09 07:22:24;;;;;;;12.35;5.95;;;0.10;65.60;;;;;;5070278;28;20031;-67
2021/03/09 07:25:04;;;;;;;13.40;7.10;;;0.00;66.60;;;;;;5070251;28;20027;-68
2021/03/09 07:27:32;;;;;;;14.10;7.30;;;0.10;66.10;;;;;;5021978;28;20030;-68
2021/03/09 07:29:59;;;;;;;19.95;7.20;;;0.20;65.90;;;;;;5051234;28;20027;-68
2021/03/09 07:32:31;;;;;;;12.48;6.22;;;0.40;65.10;;;;;;5053992;28;20406;-67
2021/03/09 07:35:00;;;;;;;12.85;7.13;;;0.50;64.60;;;;;;5064268;28;20047;-67
2021/03/09 07:37:26;;;;;;;11.30;6.53;;;0.70;64.90;;;;;;5033428;28;20104;-68
2021/03/09 07:39:53;;;;;;;16.42;5.88;;;0.80;64.00;;;;;;5051126;28;20059;-68
2021/03/09 07:42:19;;;;;;;14.25;5.90;;;0.90;63.30;;;;;;5068643;28;20044;-67
2021/03/09 07:44:47;;;;;;;14.07;7.53;;;0.70;64.10;;;;;;5054481;28;20083;-66
2021/03/09 07:47:14;;;;;;;11.20;5.35;;;0.90;63.60;;;;;;5060672;28;20122;-69
2021/03/09 07:49:42;;;;;;;24.15;10.63;;;1.00;63.00;;;;;;5069953;28;20162;-67
2021/03/09 07:52:12;;;;;;;18.33;8.68;;;1.20;62.20;;;;;;5052551;28;20142;-68
2021/03/09 07:54:40;;;;;;;13.40;5.85;;;1.50;61.50;;;;;;5055853;28;20020;-68
2021/03/09 07:57:20;;;;;;;12.23;6.53;;;1.30;61.00;;;;;;5069523;28;20028;-71
2021/03/09 08:00:00;;;;;;;9.63;5.38;;;1.70;60.30;;;;;;5052029;28;20013;-69
2021/03/09 08:03:09;;;;;;;27.58;13.85;;;1.80;59.50;;;;;;5053735;28;20359;-67
2021/03/09 08:05:57;;;;;;;12.52;6.55;;;1.80;59.70;;;;;;5052017;28;20040;-67
2021/03/09 08:08:50;;;;;;;98.15;44.42;;;1.80;59.50;;;;;;5051252;28;20032;-68
2021/03/09 08:11:19;;;;;;;182.98;54.55;;;1.90;63.70;;;;;;5053289;28;20074;-67
2021/03/09 08:14:08;;;;;;;20.60;9.75;;;2.00;61.70;;;;;;5070258;28;20382;-65
2021/03/09 08:16:38;;;;;;;20.25;10.23;;;2.10;60.00;;;;;;5030210;28;20099;-67
2021/03/09 08:19:26;;;;;;;41.30;17.88;;;2.50;58.90;;;;;;5059064;28;20114;-67
2021/03/09 08:22:00;;;;;;;22.02;11.63;;;3.00;57.50;;;;;;5049692;28;20360;-66
2021/03/09 08:24:47;;;;;;;19.95;9.65;;;3.10;56.50;;;;;;5070524;28;20025;-64
2021/03/09 08:27:27;;;;;;;18.63;9.50;;;3.50;56.00;;;;;;5039998;28;20044;-67
2021/03/09 08:29:53;;;;;;;22.57;11.17;;;3.80;53.60;;;;;;5065779;28;20067;-68
2021/03/09 08:32:35;;;;;;;16.98;7.88;;;3.30;54.60;;;;;;5069520;28;20760;-67
2021/03/09 08:35:12;;;;;;;;;;;3.30;54.80;;;;;;5061913;28;20021;-67
2021/03/09 08:37:48;;;;;;;18.52;7.40;;;3.40;54.90;;;;;;5063345;28;20012;-67
2021/03/09 08:40:18;;;;;;;17.83;8.82;;;3.50;54.40;;;;;;5069336;28;20031;-68
2021/03/09 08:43:02;;;;;;;16.02;7.57;;;3.90;53.30;;;;;;5049022;28;20025;-68
2021/03/09 08:45:54;;;;;;;15.55;7.47;;;4.00;52.40;;;;;;5065506;28;20040;-68
2021/03/09 08:48:43;;;;;;;12.63;6.72;;;4.00;51.90;;;;;;5072624;28;20559;-67
2021/03/09 08:51:29;;;;;;;16.02;7.75;;;3.70;53.10;;;;;;5072916;28;20536;-69
2021/03/09 08:53:55;;;;;;;14.77;7.50;;;4.00;53.20;;;;;;5073980;28;20032;-69
2021/03/09 08:56:20;;;;;;;16.35;9.00;;;4.60;51.70;;;;;;5072908;28;20362;-67
2021/03/09 08:58:46;;;;;;;22.98;10.35;;;4.80;50.80;;;;;;5052431;28;20423;-67
2021/03/09 09:01:22;;;;;;;15.10;7.78;;;4.60;51.40;;;;;;5063232;28;20036;-68
2021/03/09 09:03:47;;;;;;;40.88;18.90;;;5.00;50.60;;;;;;5052819;28;20480;-66
2021/03/09 09:06:13;;;;;;;15.65;7.70;;;5.20;52.00;;;;;;5055420;28;20044;-68
2021/03/09 09:08:41;;;;;;;14.00;8.50;;;5.10;49.70;;;;;;5065534;28;20029;-69
2021/03/09 09:11:06;;;;;;;30.30;14.35;;;4.80;50.50;;;;;;5058279;28;20115;-67
2021/03/09 09:13:34;;;;;;;29.50;15.63;;;4.80;51.50;;;;;;5089300;28;20028;-68
2021/03/09 09:16:01;;;;;;;26.98;14.80;;;4.90;52.70;;;;;;5093089;28;20029;-67
2021/03/09 09:18:27;;;;;;;27.88;13.63;;;4.80;52.70;;;;;;5084441;28;20463;-67
2021/03/09 09:20:53;;;;;;;21.83;10.60;;;4.90;52.70;;;;;;5074500;28;20032;-69
2021/03/09 09:23:21;;;;;;;38.05;17.35;;;5.30;51.50;;;;;;5072994;28;20092;-67
2021/03/09 09:25:52;;;;;;;17.30;9.98;;;5.00;51.30;;;;;;5046146;28;20036;-68
2021/03/09 09:28:25;;;;;;;20.80;9.73;;;5.00;51.40;;;;;;5052763;28;20055;-69
2021/03/09 09:30:52;;;;;;;16.50;9.30;;;5.00;50.30;;;;;;5052393;28;20056;-68
2021/03/09 09:33:18;;;;;;;15.15;8.93;;;5.40;49.90;;;;;;5063751;28;20013;-68
2021/03/09 09:35:46;;;;;;;28.27;15.15;;;5.60;49.40;;;;;;5071908;28;20024;-70
2021/03/09 09:38:13;;;;;;;21.27;12.52;;;5.70;49.90;;;;;;5069425;28;20021;-69
2021/03/09 09:40:42;;;;;;;20.45;12.35;;;6.10;49.10;;;;;;5054377;28;20062;-68
2021/03/09 09:43:13;;;;;;;16.92;9.38;;;6.50;48.20;;;;;;5052026;28;20017;-67
2021/03/09 09:46:06;;;;;;;13.10;8.57;;;6.50;46.10;;;;;;5055323;28;20368;-67
2021/03/09 09:48:36;;;;;;;14.27;8.77;;;6.50;45.60;;;;;;5036812;28;20025;-69
2021/03/09 09:51:12;;;;;;;16.65;9.57;;;6.00;46.50;;;;;;5061081;28;20043;-69
2021/03/09 09:53:43;;;;;;;15.23;8.95;;;5.90;46.40;;;;;;5053646;28;20109;-71
2021/03/09 09:56:20;;;;;;;22.90;12.17;;;5.80;47.00;;;;;;5068979;28;20490;-71
2021/03/09 09:58:52;;;;;;;18.17;9.32;;;5.60;48.30;;;;;;5073263;28;20263;-68
2021/03/09 10:01:40;;;;;;;;;;;5.50;48.60;;;;;;5072087;28;20023;-67
2021/03/09 10:04:10;;;;;;;28.10;10.27;;;5.90;48.30;;;;;;5067196;28;19909;-66
2021/03/09 10:06:49;;;;;;;17.75;8.93;;;6.10;47.40;;;;;;5054658;28;20032;-68
2021/03/09 10:09:17;;;;;;;15.40;7.63;;;6.40;45.80;;;;;;5072695;28;20074;-68
2021/03/09 10:11:50;;;;;;;27.05;13.73;;;6.50;45.10;;;;;;5072037;28;20036;-65
2021/03/09 10:14:17;;;;;;;17.05;8.43;;;6.50;45.90;;;;;;5072005;28;20079;-67
2021/03/09 10:16:44;;;;;;;16.73;8.77;;;6.80;43.10;;;;;;5072844;28;20092;-66
2021/03/09 10:19:18;;;;;;;28.40;13.60;;;6.60;44.30;;;;;;5071751;28;20020;-69
2021/03/09 10:21:54;;;;;;;16.98;8.73;;;6.90;44.90;;;;;;5072892;28;20440;-66
2021/03/09 10:24:32;;;;;;;87.60;33.47;;;6.90;43.60;;;;;;5054040;28;20017;-66
2021/03/09 10:26:58;;;;;;;39.28;18.45;;;7.00;45.20;;;;;;5038363;28;20505;-67
2021/03/09 10:29:26;;;;;;;18.85;9.40;;;7.00;43.30;;;;;;5051533;28;20033;-68
2021/03/09 10:31:59;;;;;;;15.10;7.65;;;6.60;41.00;;;;;;5065698;28;20501;-66
2021/03/09 10:34:40;;;;;;;16.27;7.10;;;6.20;41.60;;;;;;5070863;28;20104;-66
2021/03/09 10:37:14;;;;;;;21.65;7.18;;;6.10;41.20;;;;;;5071102;28;20029;-68
2021/03/09 10:40:00;;;;;;;11.00;6.18;;;6.10;40.30;;;;;;5055168;28;20062;-68
2021/03/09 10:42:39;;;;;;;21.50;11.25;;;6.00;41.10;;;;;;5072472;28;20052;-67
2021/03/09 10:45:20;;;;;;;11.45;6.28;;;6.50;42.30;;;;;;5051126;28;20056;-69
2021/03/09 10:47:54;;;;;;;8.50;5.47;;;7.00;38.70;;;;;;5066023;28;20056;-67
2021/03/09 10:50:25;;;;;;;9.55;5.38;;;6.90;37.60;;;;;;5053225;28;20055;-68
2021/03/09 10:52:52;;;;;;;9.07;4.82;;;6.70;35.90;;;;;;5071057;28;20040;-66
2021/03/09 10:55:17;;;;;;;8.63;4.25;;;6.30;35.70;;;;;;5054390;28;20513;-65
2021/03/09 10:57:43;;;;;;;14.50;6.45;;;6.40;35.70;;;;;;5050396;28;20036;-67
2021/03/09 11:00:15;;;;;;;14.57;6.65;;;6.40;35.70;;;;;;5068441;28;20528;-67
2021/03/09 11:02:41;;;;;;;;;;;6.50;36.70;;;;;;5065069;28;20021;-65
2021/03/09 11:05:08;;;;;;;15.00;6.82;;;6.50;37.60;;;;;;5049020;28;19904;-64
2021/03/09 11:07:34;;;;;;;6.03;4.00;;;6.70;35.40;;;;;;5053198;28;20037;-67
2021/03/09 11:09:59;;;;;;;7.03;3.88;;;6.40;34.90;;;;;;5070930;28;20535;-69
2021/03/09 11:12:25;;;;;;;11.68;4.00;;;6.30;34.60;;;;;;5051045;28;20029;-68
2021/03/09 11:14:50;;;;;;;7.95;3.97;;;6.30;34.70;;;;;;5053824;28;20070;-68
2021/03/09 11:17:16;;;;;;;7.93;4.05;;;6.50;34.50;;;;;;5050476;28;20036;-67
2021/03/09 11:19:42;;;;;;;22.55;9.25;;;6.40;34.00;;;;;;5065557;28;20032;-67
2021/03/09 11:22:07;;;;;;;8.18;3.53;;;6.50;35.30;;;;;;5070768;28;20055;-69
2021/03/09 11:24:33;;;;;;;4.88;3.15;;;6.70;34.00;;;;;;5053653;28;20021;-66
2021/03/09 11:27:00;;;;;;;7.00;3.83;;;6.70;32.50;;;;;;5052200;28;20033;-66
2021/03/09 11:29:29;;;;;;;7.43;3.60;;;6.80;33.70;;;;;;5062743;28;20020;-67
2021/03/09 11:31:55;;;;;;;6.20;3.45;;;6.50;32.80;;;;;;5050216;28;20025;-63
2021/03/09 11:34:23;;;;;;;5.55;3.60;;;6.40;32.70;;;;;;5053886;28;20047;-65
2021/03/09 11:36:49;;;;;;;6.57;3.38;;;6.50;34.10;;;;;;5069977;28;20024;-67
2021/03/09 11:39:15;;;;;;;6.65;3.72;;;6.40;32.10;;;;;;5071215;28;20016;-68
2021/03/09 11:41:41;;;;;;;7.97;4.10;;;6.60;33.50;;;;;;5070103;28;20168;-67
2021/03/09 11:44:07;;;;;;;7.53;4.07;;;6.90;32.90;;;;;;5053105;28;20040;-67
2021/03/09 11:46:33;;;;;;;6.95;3.58;;;6.80;32.10;;;;;;5071217;28;20053;-66
2021/03/09 11:48:58;;;;;;;5.60;3.17;;;6.90;31.20;;;;;;5049813;28;20021;-65
2021/03/09 11:51:24;;;;;;;4.93;3.70;;;6.70;31.30;;;;;;5062335;28;20081;-64
2021/03/09 11:53:49;;;;;;;6.40;3.60;;;6.70;31.80;;;;;;5049800;28;20163;-65
2021/03/09 11:56:15;;;;;;;8.00;4.55;;;6.70;31.20;;;;;;5067322;28;20068;-67
2021/03/09 11:58:41;;;;;;;9.77;4.65;;;6.90;31.90;;;;;;5070974;28;20021;-67
2021/03/09 12:01:07;;;;;;;4.18;2.75;;;7.00;33.40;;;;;;5070112;28;20374;-68
2021/03/09 12:03:33;;;;;;;6.22;3.47;;;6.70;30.90;;;;;;5069999;28;20060;-67
2021/03/09 12:05:58;;;;;;;5.28;3.50;;;6.80;30.90;;;;;;5051482;28;20020;-66
2021/03/09 12:08:24;;;;;;;5.88;3.65;;;6.70;30.70;;;;;;5068962;28;20451;-66
2021/03/09 12:10:50;;;;;;;7.40;4.18;;;6.80;30.80;;;;;;5053219;28;20625;-64
2021/03/09 12:13:15;;;;;;;6.20;3.35;;;7.00;31.50;;;;;;5070315;28;20017;-66
2021/03/09 12:15:41;;;;;;;5.68;3.00;;;6.90;29.80;;;;;;5071201;28;20108;-66
2021/03/09 12:18:06;;;;;;;7.53;3.38;;;6.80;29.10;;;;;;5051045;28;20537;-67
2021/03/09 12:20:32;;;;;;;9.48;3.33;;;6.80;28.90;;;;;;5073782;28;20013;-67
2021/03/09 12:22:58;;;;;;;7.30;2.70;;;6.80;28.70;;;;;;5056975;28;20071;-67
2021/03/09 12:25:24;;;;;;;5.57;3.17;;;6.80;28.60;;;;;;5070974;28;20021;-67
2021/03/09 12:27:49;;;;;;;4.43;3.22;;;6.70;29.20;;;;;;5053354;28;20036;-66
2021/03/09 12:30:16;;;;;;;9.98;4.18;;;6.80;28.30;;;;;;5072039;28;20032;-67
2021/03/09 12:32:42;;;;;;;4.75;2.75;;;6.80;30.80;;;;;;5075609;28;20021;-67
2021/03/09 12:35:09;;;;;;;5.63;3.00;;;7.00;29.10;;;;;;5073671;28;20141;-69
2021/03/09 12:37:35;;;;;;;7.85;4.03;;;7.10;28.20;;;;;;5053454;28;20062;-65
2021/03/09 12:40:01;;;;;;;6.57;3.35;;;7.30;29.80;;;;;;5071667;28;20486;-67